This is the latest recevied weather packets stored in our database for station/object WC4PEM-6. If no packets are shown the sender has not sent any weather packets the latest 10 day(s).
| Time | Temp. | Humidity | Pressure | Rain* | Wind** | Luminosity | Snow |
|---|---|---|---|---|---|---|---|
| 1777293327 | 22.22° C | 87% | 1015.3 hPa | 0 mm | - | - | - |
| 1777293092 | 20.56° C | 94% | 1014.8 hPa | 0 mm | - | - | - |
| 1777293027 | 22.22° C | 88% | 1015.3 hPa | 0 mm | - | - | - |
| 1777293013 | 22.22° C | 89% | 1015.3 hPa | 0 mm | - | - | - |
| 1777292727 | 22.22° C | 89% | 1015.3 hPa | 0 mm | - | - | - |
| 1777292590 | 21.67° C | 90% | 1015.2 hPa | 0 mm | - | - | - |
| 1777292427 | 21.67° C | 90% | 1015.2 hPa | 0 mm | - | - | - |
| 1777292127 | 21.67° C | 92% | 1015 hPa | 0 mm | - | - | - |
| 1777291827 | 21.11° C | 93% | 1014.9 hPa | 0 mm | - | - | - |
| 1777291527 | 21.11° C | 94% | 1014.9 hPa | 0 mm | - | - | - |
| 1777291227 | 20.56° C | 94% | 1014.8 hPa | 0 mm | - | - | - |
| 1777290927 | 20.56° C | 94% | 1014.8 hPa | 0 mm | - | - | - |
| 1777290718 | 20.56° C | 94% | 1014.7 hPa | 0 mm | - | - | - |
| 1777290627 | 20.56° C | 94% | 1014.7 hPa | 0 mm | - | - | - |
| 1777290509 | 20° C | 94% | 1014.5 hPa | 0 mm | - | - | - |
| 1777290327 | 20° C | 94% | 1014.5 hPa | 0 mm | - | - | - |
| 1777290027 | 20° C | 94% | 1014.4 hPa | 0 mm | - | - | - |
| 1777289863 | 20° C | 94% | 1014.5 hPa | 0 mm | - | - | - |
| 1777289727 | 20° C | 94% | 1014.5 hPa | 0 mm | - | - | - |
| 1777289427 | 19.44° C | 94% | 1014.4 hPa | 0 mm | - | - | - |
| 1777289127 | 19.44° C | 94% | 1014.3 hPa | 0 mm | - | - | - |
| 1777288919 | 19.44° C | 94% | 1014 hPa | 0 mm | - | - | - |
| 1777288827 | 19.44° C | 94% | 1014.2 hPa | 0 mm | - | - | - |
| 1777288527 | 19.44° C | 94% | 1014 hPa | 0 mm | - | - | - |
| 1777288245 | 19.44° C | 93% | 1013.6 hPa | 0 mm | - | - | - |
* Rain latest hour (hover to see other rain measurements)
** Current wind speed in m/s (hover to see current wind gust speed)